createdAt,value
2022-12-05T00:01:13.354Z,80.63
2022-12-05T00:03:40.321Z,80.65
2022-12-05T00:06:08.685Z,81.53
2022-12-05T00:08:35.546Z,80.88
2022-12-05T00:11:02.401Z,80.60
2022-12-05T00:13:29.237Z,80.25
2022-12-05T00:15:56.093Z,82.45
2022-12-05T00:18:22.990Z,80.93
2022-12-05T00:20:49.985Z,81.65
2022-12-05T00:23:18.172Z,80.88
2022-12-05T00:25:45.012Z,81.53
2022-12-05T00:28:11.864Z,80.70
2022-12-05T00:30:40.509Z,81.65
2022-12-05T00:33:07.506Z,81.32
2022-12-05T00:35:34.568Z,80.40
2022-12-05T00:38:01.449Z,79.75
2022-12-05T00:40:29.601Z,80.50
2022-12-05T00:42:56.600Z,80.95
2022-12-05T00:45:23.385Z,81.47
2022-12-05T00:47:50.272Z,81.50
2022-12-05T00:50:17.197Z,81.18
2022-12-05T00:52:44.015Z,80.68
2022-12-05T00:55:10.913Z,81.15
2022-12-05T00:57:39.145Z,80.90
2022-12-05T01:00:07.744Z,80.47
2022-12-05T01:02:34.604Z,80.25
2022-12-05T01:05:01.572Z,82.07
2022-12-05T01:07:28.565Z,81.15
2022-12-05T01:09:55.690Z,80.18
2022-12-05T01:12:22.813Z,79.70
2022-12-05T01:14:51.032Z,80.18
2022-12-05T01:17:17.896Z,80.82
2022-12-05T01:19:44.699Z,80.88
2022-12-05T01:22:11.634Z,80.57
2022-12-05T01:24:38.532Z,80.75
2022-12-05T01:27:05.383Z,80.82
2022-12-05T01:29:32.372Z,80.95
2022-12-05T01:32:00.826Z,80.80
2022-12-05T01:34:27.930Z,80.60
2022-12-05T01:36:54.916Z,81.45
2022-12-05T01:39:22.344Z,81.07
2022-12-05T01:41:50.526Z,80.50
2022-12-05T01:44:55.255Z,79.95
2022-12-05T01:47:28.220Z,80.72
2022-12-05T01:49:55.487Z,81.03
2022-12-05T01:52:26.337Z,80.70
2022-12-05T01:54:59.448Z,80.40
2022-12-05T01:57:26.669Z,81.57
2022-12-05T01:59:59.173Z,80.95
2022-12-05T02:02:29.585Z,81.15
2022-12-05T02:05:03.482Z,80.10
2022-12-05T02:07:31.510Z,81.70
2022-12-05T02:09:58.559Z,79.95
2022-12-05T02:12:25.907Z,79.68
2022-12-05T02:15:05.873Z,80.68
2022-12-05T02:17:48.018Z,80.03
2022-12-05T02:20:29.581Z,80.53
2022-12-05T02:26:07.109Z,82.15
2022-12-05T02:28:50.319Z,80.28
2022-12-05T02:31:27.312Z,81.20
2022-12-05T02:34:05.143Z,81.20
2022-12-05T02:36:39.923Z,80.82
2022-12-05T02:39:14.430Z,81.85
2022-12-05T02:41:49.618Z,81.95
2022-12-05T02:44:22.609Z,82.30
2022-12-05T02:46:52.874Z,81.68
2022-12-05T02:49:24.671Z,80.20
2022-12-05T02:51:55.611Z,82.03
2022-12-05T02:54:26.468Z,81.85
2022-12-05T02:56:55.619Z,81.93
2022-12-05T02:59:23.756Z,82.55
2022-12-05T03:01:52.637Z,82.00
2022-12-05T03:04:22.547Z,82.88
2022-12-05T03:06:53.323Z,81.47
2022-12-05T03:09:23.674Z,83.13
2022-12-05T03:11:54.448Z,81.75
2022-12-05T03:14:25.624Z,81.88
2022-12-05T03:16:57.426Z,80.90
2022-12-05T03:19:26.806Z,83.15
2022-12-05T03:21:59.107Z,80.57
2022-12-05T03:24:27.316Z,81.25
2022-12-05T03:27:04.148Z,82.57
2022-12-05T03:29:36.303Z,80.72
2022-12-05T03:32:08.340Z,81.45
2022-12-05T03:34:48.118Z,80.68
2022-12-05T03:37:21.349Z,80.53
2022-12-05T03:39:53.528Z,83.47
2022-12-05T03:42:28.828Z,81.55
2022-12-05T03:45:01.135Z,80.65
2022-12-05T03:47:37.678Z,82.35
2022-12-05T03:50:11.457Z,80.70
2022-12-05T03:53:17.465Z,81.20
2022-12-05T03:55:34.817Z,80.93
2022-12-05T03:58:06.096Z,82.30
2022-12-05T04:00:37.761Z,80.85
2022-12-05T04:03:10.704Z,81.32
2022-12-05T04:05:42.803Z,82.57
2022-12-05T04:08:14.758Z,81.63
2022-12-05T04:10:51.041Z,82.63
2022-12-05T04:13:24.866Z,81.53
2022-12-05T04:16:16.561Z,80.70
2022-12-05T04:18:50.462Z,81.35
2022-12-05T04:21:37.568Z,80.45
2022-12-05T04:24:24.979Z,81.55
2022-12-05T04:27:02.525Z,83.20
2022-12-05T04:29:34.083Z,80.45
2022-12-05T04:32:06.977Z,80.70
2022-12-05T04:34:38.714Z,80.90
2022-12-05T04:37:13.187Z,83.53
2022-12-05T04:39:44.887Z,81.82
2022-12-05T04:42:16.376Z,81.78
2022-12-05T04:47:14.953Z,80.90
2022-12-05T04:49:49.220Z,81.10
2022-12-05T04:52:19.327Z,81.53
2022-12-05T04:54:50.541Z,82.78
2022-12-05T04:57:22.362Z,81.38
2022-12-05T04:59:49.442Z,80.47
2022-12-05T05:02:21.059Z,82.65
2022-12-05T05:04:52.742Z,80.40
2022-12-05T05:07:21.536Z,81.28
2022-12-05T05:09:48.499Z,81.03
2022-12-05T05:12:18.933Z,80.60
2022-12-05T05:14:46.394Z,80.60
2022-12-05T05:17:13.274Z,81.82
2022-12-05T05:19:40.210Z,80.90
2022-12-05T05:22:08.457Z,81.82
2022-12-05T05:24:35.494Z,80.13
2022-12-05T05:27:02.325Z,80.60
2022-12-05T05:29:29.179Z,80.93
2022-12-05T05:31:56.095Z,81.03
2022-12-05T05:34:23.226Z,80.35
2022-12-05T05:36:52.937Z,81.85
2022-12-05T05:39:21.254Z,81.40
2022-12-05T05:41:48.063Z,80.90
2022-12-05T05:44:15.009Z,80.95
2022-12-05T05:46:41.964Z,80.47
2022-12-05T05:49:10.022Z,81.63
2022-12-05T05:51:36.834Z,81.82
2022-12-05T05:54:03.936Z,81.45
2022-12-05T05:56:32.185Z,81.50
2022-12-05T05:59:00.789Z,81.53
2022-12-05T06:01:28.993Z,81.78
2022-12-05T06:03:56.402Z,82.05
2022-12-05T06:06:23.558Z,80.57
2022-12-05T06:08:50.753Z,79.43
2022-12-05T06:11:25.275Z,80.90
2022-12-05T06:13:55.192Z,81.65
2022-12-05T06:16:22.677Z,80.63
2022-12-05T06:18:52.819Z,81.03
2022-12-05T06:21:19.824Z,80.30
2022-12-05T06:23:46.894Z,81.15
2022-12-05T06:26:15.528Z,80.97
2022-12-05T06:28:42.787Z,82.22
2022-12-05T06:31:12.754Z,81.35
2022-12-05T06:33:39.946Z,80.63
2022-12-05T06:36:08.978Z,82.22
2022-12-05T06:38:39.151Z,80.90
2022-12-05T06:41:10.389Z,82.18
2022-12-05T06:43:37.395Z,81.00
2022-12-05T06:46:05.267Z,81.60
2022-12-05T06:48:33.537Z,82.97
2022-12-05T06:51:00.507Z,81.72
2022-12-05T06:53:28.057Z,82.22
2022-12-05T06:55:56.561Z,82.68
2022-12-05T06:58:23.843Z,81.53
2022-12-05T07:01:09.250Z,81.72
2022-12-05T07:03:37.637Z,80.50
2022-12-05T07:06:07.117Z,81.45
2022-12-05T07:08:34.882Z,82.18
2022-12-05T07:11:01.989Z,79.88
2022-12-05T07:13:29.354Z,84.03
2022-12-05T07:15:56.337Z,81.22
2022-12-05T07:18:23.300Z,81.55
2022-12-05T07:21:13.851Z,81.15
2022-12-05T07:23:42.495Z,80.53
2022-12-05T07:26:12.197Z,81.93
2022-12-05T07:28:39.093Z,82.50
2022-12-05T07:31:08.465Z,81.30
2022-12-05T07:33:35.809Z,81.88
2022-12-05T07:36:06.772Z,81.65
2022-12-05T07:38:33.807Z,80.78
2022-12-05T07:41:07.898Z,81.05
2022-12-05T07:43:38.559Z,82.40
2022-12-05T07:46:07.740Z,81.05
2022-12-05T07:48:34.695Z,80.97
2022-12-05T07:51:02.589Z,81.43
2022-12-05T07:53:31.924Z,81.13
2022-12-05T07:56:00.005Z,81.57
2022-12-05T07:58:28.179Z,81.35
2022-12-05T08:00:55.080Z,80.97
2022-12-05T08:03:22.044Z,81.25
2022-12-05T08:05:48.900Z,80.10
2022-12-05T08:08:15.991Z,80.85
2022-12-05T08:10:44.475Z,79.95
2022-12-05T08:13:11.428Z,80.32
2022-12-05T08:15:38.229Z,80.75
2022-12-05T08:18:05.177Z,80.80
2022-12-05T08:20:32.039Z,80.28
2022-12-05T08:22:58.940Z,80.93
2022-12-05T08:25:25.767Z,79.63
2022-12-05T08:27:53.962Z,80.80
2022-12-05T08:30:20.798Z,81.80
2022-12-05T08:32:47.694Z,80.30
2022-12-05T08:35:14.950Z,80.00
2022-12-05T08:37:41.827Z,81.45
2022-12-05T08:40:09.416Z,80.88
2022-12-05T08:42:36.390Z,79.70
2022-12-05T08:45:05.428Z,80.60
2022-12-05T08:47:32.654Z,79.85
2022-12-05T08:49:59.957Z,79.85
2022-12-05T08:52:26.882Z,79.90
2022-12-05T08:54:53.672Z,80.45
2022-12-05T08:57:20.737Z,79.60
2022-12-05T08:59:47.581Z,79.93
2022-12-05T09:02:15.854Z,80.38
2022-12-05T09:04:42.825Z,79.68
2022-12-05T09:07:09.720Z,79.45
2022-12-05T09:09:36.604Z,79.13
2022-12-05T09:12:03.864Z,79.57
2022-12-05T09:14:33.067Z,80.43
2022-12-05T09:17:00.946Z,80.03
2022-12-05T09:19:29.228Z,79.43
2022-12-05T09:21:56.790Z,79.22
2022-12-05T09:24:24.100Z,79.85
2022-12-05T09:26:51.152Z,79.38
2022-12-05T09:29:18.331Z,79.45
2022-12-05T09:31:47.352Z,79.32
2022-12-05T09:34:15.400Z,79.90
2022-12-05T09:36:44.280Z,79.30
2022-12-05T09:39:11.500Z,79.45
2022-12-05T09:42:09.808Z,79.97
2022-12-05T09:44:44.379Z,79.55
2022-12-05T09:47:26.725Z,79.28
2022-12-05T09:49:57.569Z,79.97
2022-12-05T09:52:29.558Z,79.47
2022-12-05T09:54:59.631Z,79.40
2022-12-05T09:57:34.335Z,79.38
2022-12-05T10:00:03.779Z,79.32
2022-12-05T10:02:43.229Z,79.50
2022-12-05T10:05:17.745Z,79.47
2022-12-05T10:07:55.365Z,79.65
2022-12-05T10:10:30.205Z,79.50
2022-12-05T10:13:14.257Z,79.35
2022-12-05T10:15:45.949Z,79.78
2022-12-05T10:18:24.690Z,79.57
2022-12-05T10:20:56.986Z,79.85
2022-12-05T10:23:55.871Z,79.45
2022-12-05T10:26:17.799Z,79.78
2022-12-05T10:28:51.590Z,79.60
2022-12-05T10:31:22.759Z,79.65
2022-12-05T10:33:53.864Z,79.22
2022-12-05T10:36:20.671Z,79.78
2022-12-05T10:38:50.253Z,79.75
2022-12-05T10:41:17.736Z,79.68
2022-12-05T10:43:45.835Z,79.55
2022-12-05T10:46:17.362Z,80.10
2022-12-05T10:48:44.692Z,80.00
2022-12-05T10:51:15.044Z,79.75
2022-12-05T10:53:43.849Z,79.77
2022-12-05T10:56:38.612Z,79.40
2022-12-05T10:59:06.987Z,79.07
2022-12-05T11:01:35.683Z,79.40
2022-12-05T11:04:13.641Z,79.47
2022-12-05T11:06:50.907Z,79.75
2022-12-05T11:09:20.965Z,79.53
2022-12-05T11:12:03.837Z,79.60
2022-12-05T11:14:31.577Z,79.57
2022-12-05T11:17:00.498Z,79.47
2022-12-05T11:19:29.441Z,79.80
2022-12-05T11:21:56.658Z,79.55
2022-12-05T11:24:27.458Z,79.82
2022-12-05T11:26:54.919Z,79.72
2022-12-05T11:29:32.316Z,79.32
2022-12-05T11:31:59.412Z,79.80
2022-12-05T11:34:34.956Z,79.38
2022-12-05T11:37:05.828Z,79.72
2022-12-05T11:39:33.192Z,79.22
2022-12-05T11:42:32.769Z,79.32
2022-12-05T11:45:26.057Z,79.38
2022-12-05T11:48:22.709Z,79.45
2022-12-05T11:51:03.015Z,79.22
2022-12-05T11:53:48.064Z,79.20
2022-12-05T11:56:27.789Z,79.65
2022-12-05T11:59:13.465Z,79.25
2022-12-05T12:01:51.956Z,79.18
2022-12-05T12:04:44.470Z,79.28
2022-12-05T12:07:33.452Z,79.55
2022-12-05T12:10:13.596Z,79.47
2022-12-05T12:12:50.962Z,79.18
2022-12-05T12:15:37.600Z,79.10
2022-12-05T12:18:21.100Z,79.10
2022-12-05T12:21:04.732Z,79.10
2022-12-05T12:23:49.643Z,79.25
2022-12-05T12:26:29.962Z,79.53
2022-12-05T12:29:03.413Z,79.40
2022-12-05T12:31:49.615Z,79.05
2022-12-05T12:34:54.369Z,79.13
2022-12-05T12:37:27.553Z,78.78
2022-12-05T12:40:04.944Z,78.93
2022-12-05T12:42:38.924Z,79.72
2022-12-05T12:45:41.275Z,79.20
2022-12-05T12:48:21.591Z,79.10
2022-12-05T12:50:53.737Z,79.63
2022-12-05T12:53:42.185Z,79.07
2022-12-05T12:56:21.408Z,80.75
2022-12-05T12:58:54.305Z,79.38
2022-12-05T13:01:33.345Z,78.78
2022-12-05T13:04:07.538Z,79.13
2022-12-05T13:06:42.819Z,79.38
2022-12-05T13:09:18.322Z,79.28
2022-12-05T13:11:46.863Z,79.47
2022-12-05T13:14:16.218Z,79.05
2022-12-05T13:16:51.043Z,79.60
2022-12-05T13:19:27.297Z,79.00
2022-12-05T13:21:57.957Z,79.07
2022-12-05T13:24:27.541Z,78.93
2022-12-05T13:26:59.063Z,78.97
2022-12-05T13:29:31.800Z,79.68
2022-12-05T13:32:00.141Z,78.72
2022-12-05T13:34:47.001Z,78.70
2022-12-05T13:37:40.902Z,79.20
2022-12-05T13:40:42.239Z,78.82
2022-12-05T13:43:10.634Z,78.95
2022-12-05T13:45:38.425Z,79.03
2022-12-05T13:48:19.574Z,79.03
2022-12-05T13:50:52.691Z,79.20
2022-12-05T13:53:32.508Z,78.88
2022-12-05T13:56:01.942Z,78.95
2022-12-05T13:58:46.984Z,78.90
2022-12-05T14:01:56.656Z,78.97
2022-12-05T14:04:48.110Z,79.10
2022-12-05T14:07:38.978Z,79.22
2022-12-05T14:10:09.279Z,78.88
2022-12-05T14:12:54.668Z,78.97
2022-12-05T14:15:33.314Z,79.05
2022-12-05T14:18:10.660Z,79.18
2022-12-05T14:20:49.256Z,79.05
2022-12-05T14:23:37.235Z,79.07
2022-12-05T14:26:19.140Z,78.72
2022-12-05T14:29:00.743Z,79.35
2022-12-05T14:31:45.743Z,78.82
2022-12-05T14:34:22.373Z,78.60
2022-12-05T14:36:58.500Z,79.10
2022-12-05T14:39:34.042Z,78.97
2022-12-05T14:42:05.580Z,78.95
2022-12-05T14:44:33.366Z,79.25
2022-12-05T14:47:03.364Z,79.47
2022-12-05T14:49:55.631Z,79.60
2022-12-05T14:52:24.501Z,80.63
2022-12-05T14:54:53.944Z,78.97
2022-12-05T14:57:23.052Z,79.85
2022-12-05T14:59:54.022Z,78.93
2022-12-05T15:02:27.066Z,79.03
2022-12-05T15:05:00.728Z,78.90
2022-12-05T15:07:35.424Z,79.65
2022-12-05T15:10:07.155Z,79.18
2022-12-05T15:12:40.654Z,79.35
2022-12-05T15:15:14.141Z,78.90
2022-12-05T15:17:46.383Z,79.05
2022-12-05T15:20:20.090Z,79.30
2022-12-05T15:22:47.105Z,78.80
2022-12-05T15:25:19.973Z,78.80
2022-12-05T15:27:54.239Z,78.75
2022-12-05T15:30:21.240Z,79.00
2022-12-05T15:32:48.510Z,79.10
2022-12-05T15:35:16.440Z,79.20
2022-12-05T15:37:50.638Z,79.15
2022-12-05T15:40:21.842Z,79.15
2022-12-05T15:42:50.425Z,79.35
2022-12-05T15:45:26.744Z,79.75
2022-12-05T15:47:56.900Z,79.25
2022-12-05T15:50:33.503Z,79.35
2022-12-05T15:53:05.246Z,79.38
2022-12-05T15:55:38.849Z,79.05
2022-12-05T15:58:12.940Z,78.95
2022-12-05T16:00:47.175Z,78.85
2022-12-05T16:03:18.528Z,79.07
2022-12-05T16:08:15.384Z,78.75
2022-12-05T16:10:42.316Z,82.93
2022-12-05T16:13:14.314Z,79.25
2022-12-05T16:15:50.821Z,78.82
2022-12-05T16:18:26.751Z,79.70
2022-12-05T16:20:53.850Z,79.13
2022-12-05T16:23:26.633Z,79.47
2022-12-05T16:25:54.343Z,78.90
2022-12-05T16:28:22.271Z,79.03
2022-12-05T16:30:58.807Z,79.07
2022-12-05T16:33:27.020Z,78.82
2022-12-05T16:35:53.873Z,79.82
2022-12-05T16:38:25.694Z,79.00
2022-12-05T16:40:55.845Z,78.68
2022-12-05T16:43:40.670Z,79.07
2022-12-05T16:46:47.403Z,79.30
2022-12-05T16:49:37.859Z,78.68
2022-12-05T16:52:14.427Z,78.75
2022-12-05T16:54:41.577Z,78.75
2022-12-05T16:57:12.961Z,78.80
2022-12-05T17:02:13.991Z,78.75
2022-12-05T17:07:07.846Z,78.47
2022-12-05T17:09:34.893Z,79.15
2022-12-05T17:12:05.898Z,78.85
2022-12-05T17:14:32.855Z,78.82
2022-12-05T17:17:02.198Z,78.75
2022-12-05T17:19:30.677Z,78.95
2022-12-05T17:21:57.500Z,78.93
2022-12-05T17:24:25.959Z,79.53
2022-12-05T17:26:52.816Z,79.32
2022-12-05T17:29:19.913Z,79.05
2022-12-05T17:31:46.851Z,80.00
2022-12-05T17:34:15.977Z,78.97
2022-12-05T17:36:44.954Z,79.50
2022-12-05T17:39:12.152Z,79.05
2022-12-05T17:41:39.032Z,79.07
2022-12-05T17:44:06.289Z,79.35
2022-12-05T17:46:33.774Z,79.25
2022-12-05T17:49:00.702Z,81.38
2022-12-05T17:51:27.773Z,78.80
2022-12-05T17:53:56.032Z,79.45
2022-12-05T17:56:22.884Z,78.97
2022-12-05T17:58:50.656Z,79.40
2022-12-05T18:01:20.165Z,79.47
2022-12-05T18:03:47.358Z,79.50
2022-12-05T18:06:14.826Z,79.72
2022-12-05T18:08:44.117Z,79.53
2022-12-05T18:11:14.613Z,79.20
2022-12-05T18:13:41.518Z,80.63
2022-12-05T18:16:08.677Z,79.90
2022-12-05T18:18:35.616Z,81.03
2022-12-05T18:21:07.577Z,80.15
2022-12-05T18:23:35.781Z,79.63
2022-12-05T18:26:02.847Z,80.60
2022-12-05T18:28:31.230Z,81.68
2022-12-05T18:31:05.680Z,79.35
2022-12-05T18:33:32.557Z,79.70
2022-12-05T18:36:04.631Z,78.97
2022-12-05T18:38:31.522Z,81.63
2022-12-05T18:41:02.934Z,83.30
2022-12-05T18:43:32.162Z,81.20
2022-12-05T18:46:01.074Z,79.65
2022-12-05T18:48:47.817Z,79.25
2022-12-05T18:51:18.058Z,80.65
2022-12-05T18:53:51.825Z,81.72
2022-12-05T18:56:23.150Z,79.80
2022-12-05T18:58:58.153Z,79.90
2022-12-05T19:01:25.782Z,79.30
2022-12-05T19:03:53.113Z,79.38
2022-12-05T19:06:22.345Z,79.20
2022-12-05T19:08:49.671Z,79.25
2022-12-05T19:11:19.062Z,79.35
2022-12-05T19:13:47.480Z,80.00
2022-12-05T19:16:18.575Z,79.85
2022-12-05T19:18:46.659Z,79.57
2022-12-05T19:21:14.003Z,80.72
2022-12-05T19:23:40.962Z,80.47
2022-12-05T19:26:09.975Z,79.30
2022-12-05T19:28:37.932Z,81.10
2022-12-05T19:31:07.169Z,80.55
2022-12-05T19:33:37.654Z,80.22
2022-12-05T19:36:07.265Z,81.53
2022-12-05T19:38:35.154Z,81.88
2022-12-05T19:41:02.739Z,83.97
2022-12-05T19:43:30.004Z,82.03
2022-12-05T19:45:57.743Z,82.35
2022-12-05T19:48:24.668Z,84.22
2022-12-05T19:50:57.105Z,83.68
2022-12-05T19:53:25.260Z,82.10
2022-12-05T19:55:52.371Z,84.75
2022-12-05T19:58:19.381Z,85.30
2022-12-05T20:00:47.464Z,85.20
2022-12-05T20:03:14.422Z,83.95
2022-12-05T20:05:41.279Z,84.38
2022-12-05T20:08:09.729Z,84.60
2022-12-05T20:10:37.809Z,83.53
2022-12-05T20:13:12.955Z,85.72
2022-12-05T20:15:51.319Z,87.65
2022-12-05T20:18:18.098Z,84.68
2022-12-05T20:20:44.916Z,87.53
2022-12-05T20:23:13.343Z,87.38
2022-12-05T20:25:44.061Z,88.65
2022-12-05T20:28:10.890Z,87.60
2022-12-05T20:30:37.785Z,87.78
2022-12-05T20:33:04.635Z,89.88
2022-12-05T20:35:35.330Z,86.47
2022-12-05T20:38:02.232Z,86.47
2022-12-05T20:40:31.077Z,88.38
2022-12-05T20:42:57.947Z,86.43
2022-12-05T20:45:24.765Z,87.30
2022-12-05T20:47:51.731Z,83.82
2022-12-05T20:50:18.641Z,84.90
2022-12-05T20:52:47.101Z,85.68
2022-12-05T20:55:14.030Z,85.38
2022-12-05T20:57:42.223Z,87.40
2022-12-05T21:00:10.160Z,85.78
2022-12-05T21:02:37.039Z,85.85
2022-12-05T21:05:04.306Z,84.82
2022-12-05T21:07:31.378Z,86.00
2022-12-05T21:10:01.041Z,85.13
2022-12-05T21:12:31.685Z,87.68
2022-12-05T21:14:59.990Z,89.63
2022-12-05T21:17:27.597Z,85.68
2022-12-05T21:19:54.420Z,85.57
2022-12-05T21:22:21.245Z,87.85
2022-12-05T21:24:48.086Z,83.82
2022-12-05T21:27:14.957Z,85.38
2022-12-05T21:29:42.780Z,83.15
2022-12-05T21:32:10.996Z,83.45
2022-12-05T21:34:37.853Z,84.20
2022-12-05T21:37:04.752Z,83.32
2022-12-05T21:39:31.651Z,84.35
2022-12-05T21:41:58.596Z,84.75
2022-12-05T21:44:25.444Z,84.68
2022-12-05T21:46:53.406Z,82.03
2022-12-05T21:49:21.663Z,82.43
2022-12-05T21:51:48.574Z,82.80
2022-12-05T21:54:15.396Z,82.47
2022-12-05T21:56:43.449Z,83.75
2022-12-05T21:59:10.490Z,81.97
2022-12-05T22:01:37.407Z,82.57
2022-12-05T22:04:04.422Z,81.30
2022-12-05T22:06:34.027Z,81.38
2022-12-05T22:09:01.412Z,81.80
2022-12-05T22:11:28.301Z,81.68
2022-12-05T22:13:55.325Z,80.68
2022-12-05T22:16:25.396Z,84.90
2022-12-05T22:18:56.042Z,81.60
2022-12-05T22:21:22.934Z,80.05
2022-12-05T22:23:51.142Z,81.07
2022-12-05T22:26:19.619Z,81.43
2022-12-05T22:28:49.084Z,82.88
2022-12-05T22:31:17.703Z,82.47
2022-12-05T22:33:45.496Z,80.78
2022-12-05T22:36:14.748Z,81.43
2022-12-05T22:38:44.556Z,80.28
2022-12-05T22:41:14.966Z,80.32
2022-12-05T22:43:43.422Z,80.20
2022-12-05T22:46:12.268Z,80.80
2022-12-05T22:48:39.843Z,80.78
2022-12-05T22:51:08.493Z,80.93
2022-12-05T22:53:35.833Z,80.30
2022-12-05T22:56:04.292Z,79.90
2022-12-05T22:58:33.025Z,80.82
2022-12-05T23:01:08.365Z,79.40
2022-12-05T23:03:35.366Z,80.32
2022-12-05T23:06:09.700Z,79.63
2022-12-05T23:08:38.981Z,80.70
2022-12-05T23:11:07.039Z,79.97
2022-12-05T23:13:36.599Z,79.50
2022-12-05T23:16:08.290Z,80.50
2022-12-05T23:18:47.824Z,79.47
2022-12-05T23:21:16.889Z,79.88
2022-12-05T23:23:44.328Z,79.53
2022-12-05T23:26:11.382Z,81.45
2022-12-05T23:28:39.932Z,79.72
2022-12-05T23:31:10.569Z,79.03
2022-12-05T23:33:38.722Z,78.93
2022-12-05T23:36:06.904Z,78.80
2022-12-05T23:38:34.116Z,78.70
2022-12-05T23:41:02.492Z,78.97
2022-12-05T23:43:30.418Z,79.80
2022-12-05T23:45:58.906Z,79.63
2022-12-05T23:48:26.165Z,79.65
2022-12-05T23:50:57.972Z,79.45
2022-12-05T23:53:26.012Z,79.72
2022-12-05T23:55:53.093Z,79.22
2022-12-05T23:58:20.104Z,78.85
